Spirit Of Montoir — IBLU — position and weather

sailwx.info

Track history (hours):
 
Tides and Currents Weather Stations Pressure Air Temp Water Temp Dewpoint Dewpoint Depression Visibility Wind Speed Wind Dir Waves Ship Positions

Spirit Of Montoir

Last reported at 2017-Oct-16 08:27 UTC. Time now 2017-Oct-17 10:06 UTC.
Position N 39°30' W 009°48'.

Length 180 m; draft 6.1 m.

Type: Ship. MMSI: 247371500.

Date/timePositionNaut miles runAvg speedWind from/ knotsBaromVisibWave heightAir tempDewpointWater temp
2017-Oct-16 08:27N 39°30' W 009°48'716.6
2017-Oct-16 08:00N 39°22' W 009°49'816.4
2017-Oct-16 07:30N 39°14' W 009°50'816.4
2017-Oct-16 07:00N 39°06' W 009°50'816.5
2017-Oct-16 06:30N 38°58' W 009°50'816.9
2017-Oct-16 06:00N 38°49' W 009°51'917.1
2017-Oct-16 05:30N 38°41' W 009°50'917.2
2017-Oct-16 05:00N 38°33' W 009°47'917.4
2017-Oct-16 04:30N 38°24' W 009°45'917.2
2017-Oct-16 04:01N 38°16' W 009°42'917.3
2017-Oct-16 03:30N 38°07' W 009°40'917.0
2017-Oct-16 03:00N 37°59' W 009°37'917.2
2017-Oct-16 02:30N 37°51' W 009°34'917.3
2017-Oct-16 02:01N 37°42' W 009°32'917.3
2017-Oct-16 01:30N 37°34' W 009°30'917.3
2017-Oct-16 01:00N 37°25' W 009°27'917.1
2017-Oct-16 00:31N 37°17' W 009°25'816.9
2017-Oct-16 00:00N 37°09' W 009°22'917.0
2017-Oct-15 23:29N 37°00' W 009°20'816.2
2017-Oct-15 23:00N 36°53' W 009°17'917.0
2017-Oct-15 22:30N 36°46' W 009°10'1017.1
2017-Oct-15 21:57N 36°42' W 008°59'716.9
2017-Oct-15 21:30N 36°39' W 008°50'917.1
2017-Oct-15 21:00N 36°36' W 008°41'917.2
2017-Oct-15 20:30N 36°34' W 008°30'816.7
2017-Oct-15 20:00N 36°31' W 008°20'816.9
2017-Oct-15 19:30N 36°29' W 008°10'917.1
2017-Oct-15 19:00N 36°26' W 008°00'917.9
2017-Oct-15 18:30N 36°23' W 007°50'917.9
2017-Oct-15 18:01N 36°20' W 007°39'918.2
2017-Oct-15 17:30N 36°17' W 007°29'918.3
2017-Oct-15 17:00N 36°14' W 007°18'918.0
2017-Oct-15 16:30N 36°12' W 007°07'918.0
2017-Oct-15 16:00N 36°09' W 006°57'1318.0
2017-Oct-15 15:18N 36°05' W 006°42'4217.5
2017-Oct-15 12:54N 35°58' W 005°50'1017.3
2017-Oct-15 12:17N 35°58' W 005°37'517.6
2017-Oct-15 12:01N 35°59' W 005°32'918.8
2017-Oct-15 11:31N 36°02' W 005°20'17017.4
2017-Oct-15 01:45N 36°30' W 001°53'1615.3
2017-Oct-15 00:42N 36°34' W 001°33'414.8
2017-Oct-15 00:25N 36°35' W 001°28'615.1
2017-Oct-15 00:00N 36°36' W 001°21'715.0
2017-Oct-14 23:30N 36°38' W 001°12'914.9
2017-Oct-14 22:53N 36°41' W 001°01'615.2
2017-Oct-14 22:30N 36°42' W 000°54'918.1
2017-Oct-14 22:00N 36°44' W 000°42'816.8
2017-Oct-14 21:30N 36°46' W 000°32'916.8
2017-Oct-14 21:00N 36°49' W 000°22'916.8
2017-Oct-14 20:29N 36°51' W 000°12'817.0
2017-Oct-14 20:00N 36°53' W 000°02'817.0
2017-Oct-14 19:30N 36°56' E 000°08'817.0
2017-Oct-14 19:00N 36°58' E 000°18'917.2
2017-Oct-14 18:30N 36°60' E 000°29'816.9
2017-Oct-14 18:00N 37°02' E 000°39'817.0
2017-Oct-14 17:30N 37°05' E 000°49'816.9
2017-Oct-14 17:00N 37°07' E 000°59'916.9
2017-Oct-14 16:30N 37°10' E 001°09'816.8
2017-Oct-14 16:00N 37°13' E 001°19'917.0
2017-Oct-14 15:30N 37°15' E 001°29'917.5
2017-Oct-14 15:00N 37°18' E 001°40'816.3
2017-Oct-14 14:30N 37°21' E 001°50'917.9
2017-Oct-14 14:00N 37°23' E 002°01'916.8
2017-Oct-14 13:27N 37°26' E 002°12'1017.1
2017-Oct-14 12:51N 37°28' E 002°24'916.9
2017-Oct-14 12:20N 37°30' E 002°35'617.0
2017-Oct-14 11:58N 37°32' E 002°43'5917.0
2017-Oct-14 08:29N 37°46' E 003°55'22719.1
2017-Oct-13 20:35N 38°43' E 008°35'418.8
2017-Oct-13 20:21N 38°45' E 008°40'717.8
2017-Oct-13 19:59N 38°38' E 008°38'711.8
2017-Oct-13 19:26N 38°38' E 008°29'511.4
2017-Oct-13 19:00N 38°42' E 008°33'1019.2
2017-Oct-13 18:29N 38°41' E 008°46'1019.3
2017-Oct-13 18:00N 38°44' E 008°57'919.1
2017-Oct-13 17:30N 38°48' E 009°08'1019.3
2017-Oct-13 17:00N 38°52' E 009°19'1019.5
2017-Oct-13 16:29N 38°58' E 009°31'22911.1
2017-Oct-12 19:51N 40°31' E 014°03'  
2017-Oct-08 08:06N 36°03' W 007°03'113.3
2017-Oct-08 08:00N 36°03' W 007°04'713.5
2017-Oct-08 07:28N 36°04' W 007°13'1513.3
2017-Oct-08 06:19N 36°08' W 007°31'513.2
2017-Oct-08 05:58N 36°09' W 007°37'2913.6
2017-Oct-08 03:50N 36°16' W 008°12'613.9
2017-Oct-08 03:24N 36°17' W 008°19'514.0
2017-Oct-08 03:00N 36°18' W 008°26'713.2
2017-Oct-08 02:29N 36°20' W 008°34'613.3
2017-Oct-08 02:01N 36°22' W 008°42'713.4
2017-Oct-08 01:30N 36°24' W 008°50'713.3
2017-Oct-08 01:00N 36°26' W 008°58'714.3
2017-Oct-08 00:30N 36°27' W 009°06'713.9
2017-Oct-08 00:00N 36°29' W 009°15'713.3
2017-Oct-07 23:31N 36°32' W 009°22'713.5
2017-Oct-07 23:00N 36°37' W 009°28'713.5
2017-Oct-07 22:31N 36°42' W 009°34'713.5
2017-Oct-07 22:01N 36°48' W 009°38'713.5
2017-Oct-07 21:31N 36°54' W 009°40'713.7
2017-Oct-07 21:01N 37°01' W 009°42'713.7
2017-Oct-07 20:30N 37°08' W 009°43'813.9
2017-Oct-07 19:56N 37°16' W 009°45'713.9
2017-Oct-07 19:26N 37°22' W 009°47'613.7
2017-Oct-07 19:00N 37°28' W 009°48'713.7
2017-Oct-07 18:30N 37°35' W 009°50'713.7
2017-Oct-07 18:01N 37°42' W 009°51'714.1
2017-Oct-07 17:30N 37°49' W 009°53'714.5
2017-Oct-07 17:01N 37°56' W 009°55'714.4
2017-Oct-07 16:30N 38°03' W 009°56'714.2
2017-Oct-07 16:01N 38°10' W 009°57'713.6
2017-Oct-07 15:30N 38°17' W 009°58'713.6
2017-Oct-07 15:00N 38°23' W 009°59'713.5
2017-Oct-07 14:30N 38°30' W 010°00'713.8
2017-Oct-07 14:00N 38°36' W 010°03'714.7
2017-Oct-07 13:30N 38°44' W 010°05'714.1
2017-Oct-07 13:00N 38°51' W 010°05'714.0
2017-Oct-07 12:30N 38°58' W 010°04'713.5
2017-Oct-07 12:00N 39°04' W 010°03'714.2
2017-Oct-07 11:31N 39°11' W 010°03'714.3
2017-Oct-07 11:00N 39°19' W 010°04'714.4
2017-Oct-07 10:30N 39°26' W 010°04'714.3
2017-Oct-07 10:00N 39°33' W 010°04'713.9
2017-Oct-07 09:30N 39°40' W 010°04'714.2
2017-Oct-07 09:00N 39°47' W 010°04'714.0
2017-Oct-07 08:30N 39°54' W 010°04'714.2
2017-Oct-07 08:01N 40°01' W 010°04'815.3
2017-Oct-07 07:30N 40°09' W 010°04'815.5
2017-Oct-07 07:00N 40°17' W 010°04'815.5
2017-Oct-07 06:30N 40°24' W 010°04'815.3
2017-Oct-07 06:00N 40°32' W 010°04'815.3
2017-Oct-07 05:31N 40°40' W 010°04'815.4
2017-Oct-07 05:00N 40°47' W 010°04'815.6
2017-Oct-07 04:31N 40°55' W 010°04'815.3
2017-Oct-07 04:00N 41°03' W 010°04'815.1
2017-Oct-07 03:31N 41°10' W 010°04'815.7
2017-Oct-07 03:00N 41°18' W 010°04'815.5
2017-Oct-07 02:31N 41°26' W 010°04'815.1
2017-Oct-07 02:01N 41°33' W 010°03'815.1
2017-Oct-07 01:30N 41°41' W 010°02'3614.1
2017-Oct-06 22:55N 42°17' W 010°04'614.2
2017-Oct-06 22:30N 42°23' W 010°05'913.4
2017-Oct-06 21:51N 42°32' W 010°06'1614.1
2017-Oct-06 20:42N 42°48' W 010°06'813.9
2017-Oct-06 20:06N 42°56' W 010°06'513.8
2017-Oct-06 19:45N 43°01' W 010°06'313.5
2017-Oct-06 19:30N 43°05' W 010°06'713.8
2017-Oct-06 19:01N 43°12' W 010°05'713.7
2017-Oct-06 18:31N 43°18' W 010°04'814.1
2017-Oct-06 17:57N 43°25' W 009°59'  
Track history (hours):
 
Tides and Currents Weather Stations Pressure Air Temp Water Temp Dewpoint Dewpoint Depression Visibility Wind Speed Wind Dir Waves Ship Positions

Spirit Of Montoir

Last reported at 2017-Oct-16 08:27 UTC. Time now 2017-Oct-17 10:06 UTC.
Position N 39°30' W 009°48'.

Length 180 m; draft 6.1 m.

Type: Ship. MMSI: 247371500.

Date/timePositionNaut miles runAvg speedWind from/ knotsBaromVisibWave heightAir tempDewpointWater temp
2017-Oct-16 08:27N 39°30' W 009°48'716.6
2017-Oct-16 08:00N 39°22' W 009°49'816.4
2017-Oct-16 07:30N 39°14' W 009°50'816.4
2017-Oct-16 07:00N 39°06' W 009°50'816.5
2017-Oct-16 06:30N 38°58' W 009°50'816.9
2017-Oct-16 06:00N 38°49' W 009°51'917.1
2017-Oct-16 05:30N 38°41' W 009°50'917.2
2017-Oct-16 05:00N 38°33' W 009°47'917.4
2017-Oct-16 04:30N 38°24' W 009°45'917.2
2017-Oct-16 04:01N 38°16' W 009°42'917.3
2017-Oct-16 03:30N 38°07' W 009°40'917.0
2017-Oct-16 03:00N 37°59' W 009°37'917.2
2017-Oct-16 02:30N 37°51' W 009°34'917.3
2017-Oct-16 02:01N 37°42' W 009°32'917.3
2017-Oct-16 01:30N 37°34' W 009°30'917.3
2017-Oct-16 01:00N 37°25' W 009°27'917.1
2017-Oct-16 00:31N 37°17' W 009°25'816.9
2017-Oct-16 00:00N 37°09' W 009°22'917.0
2017-Oct-15 23:29N 37°00' W 009°20'816.2
2017-Oct-15 23:00N 36°53' W 009°17'917.0
2017-Oct-15 22:30N 36°46' W 009°10'1017.1
2017-Oct-15 21:57N 36°42' W 008°59'716.9
2017-Oct-15 21:30N 36°39' W 008°50'917.1
2017-Oct-15 21:00N 36°36' W 008°41'917.2
2017-Oct-15 20:30N 36°34' W 008°30'816.7
2017-Oct-15 20:00N 36°31' W 008°20'816.9
2017-Oct-15 19:30N 36°29' W 008°10'917.1
2017-Oct-15 19:00N 36°26' W 008°00'917.9
2017-Oct-15 18:30N 36°23' W 007°50'917.9
2017-Oct-15 18:01N 36°20' W 007°39'918.2
2017-Oct-15 17:30N 36°17' W 007°29'918.3
2017-Oct-15 17:00N 36°14' W 007°18'918.0
2017-Oct-15 16:30N 36°12' W 007°07'918.0
2017-Oct-15 16:00N 36°09' W 006°57'1318.0
2017-Oct-15 15:18N 36°05' W 006°42'4217.5
2017-Oct-15 12:54N 35°58' W 005°50'1017.3
2017-Oct-15 12:17N 35°58' W 005°37'517.6
2017-Oct-15 12:01N 35°59' W 005°32'918.8
2017-Oct-15 11:31N 36°02' W 005°20'17017.4
2017-Oct-15 01:45N 36°30' W 001°53'1615.3
2017-Oct-15 00:42N 36°34' W 001°33'414.8
2017-Oct-15 00:25N 36°35' W 001°28'615.1
2017-Oct-15 00:00N 36°36' W 001°21'715.0
2017-Oct-14 23:30N 36°38' W 001°12'914.9
2017-Oct-14 22:53N 36°41' W 001°01'615.2
2017-Oct-14 22:30N 36°42' W 000°54'918.1
2017-Oct-14 22:00N 36°44' W 000°42'816.8
2017-Oct-14 21:30N 36°46' W 000°32'916.8
2017-Oct-14 21:00N 36°49' W 000°22'916.8
2017-Oct-14 20:29N 36°51' W 000°12'817.0
2017-Oct-14 20:00N 36°53' W 000°02'817.0
2017-Oct-14 19:30N 36°56' E 000°08'817.0
2017-Oct-14 19:00N 36°58' E 000°18'917.2
2017-Oct-14 18:30N 36°60' E 000°29'816.9
2017-Oct-14 18:00N 37°02' E 000°39'817.0
2017-Oct-14 17:30N 37°05' E 000°49'816.9
2017-Oct-14 17:00N 37°07' E 000°59'916.9
2017-Oct-14 16:30N 37°10' E 001°09'816.8
2017-Oct-14 16:00N 37°13' E 001°19'917.0
2017-Oct-14 15:30N 37°15' E 001°29'917.5
2017-Oct-14 15:00N 37°18' E 001°40'816.3
2017-Oct-14 14:30N 37°21' E 001°50'917.9
2017-Oct-14 14:00N 37°23' E 002°01'916.8
2017-Oct-14 13:27N 37°26' E 002°12'1017.1
2017-Oct-14 12:51N 37°28' E 002°24'916.9
2017-Oct-14 12:20N 37°30' E 002°35'617.0
2017-Oct-14 11:58N 37°32' E 002°43'5917.0
2017-Oct-14 08:29N 37°46' E 003°55'22719.1
2017-Oct-13 20:35N 38°43' E 008°35'418.8
2017-Oct-13 20:21N 38°45' E 008°40'717.8
2017-Oct-13 19:59N 38°38' E 008°38'711.8
2017-Oct-13 19:26N 38°38' E 008°29'511.4
2017-Oct-13 19:00N 38°42' E 008°33'1019.2
2017-Oct-13 18:29N 38°41' E 008°46'1019.3
2017-Oct-13 18:00N 38°44' E 008°57'919.1
2017-Oct-13 17:30N 38°48' E 009°08'1019.3
2017-Oct-13 17:00N 38°52' E 009°19'1019.5
2017-Oct-13 16:29N 38°58' E 009°31'22911.1
2017-Oct-12 19:51N 40°31' E 014°03'  
2017-Oct-08 08:06N 36°03' W 007°03'113.3
2017-Oct-08 08:00N 36°03' W 007°04'713.5
2017-Oct-08 07:28N 36°04' W 007°13'1513.3
2017-Oct-08 06:19N 36°08' W 007°31'513.2
2017-Oct-08 05:58N 36°09' W 007°37'2913.6
2017-Oct-08 03:50N 36°16' W 008°12'613.9
2017-Oct-08 03:24N 36°17' W 008°19'514.0
2017-Oct-08 03:00N 36°18' W 008°26'713.2
2017-Oct-08 02:29N 36°20' W 008°34'613.3
2017-Oct-08 02:01N 36°22' W 008°42'713.4
2017-Oct-08 01:30N 36°24' W 008°50'713.3
2017-Oct-08 01:00N 36°26' W 008°58'714.3
2017-Oct-08 00:30N 36°27' W 009°06'713.9
2017-Oct-08 00:00N 36°29' W 009°15'713.3
2017-Oct-07 23:31N 36°32' W 009°22'713.5
2017-Oct-07 23:00N 36°37' W 009°28'713.5
2017-Oct-07 22:31N 36°42' W 009°34'713.5
2017-Oct-07 22:01N 36°48' W 009°38'713.5
2017-Oct-07 21:31N 36°54' W 009°40'713.7
2017-Oct-07 21:01N 37°01' W 009°42'713.7
2017-Oct-07 20:30N 37°08' W 009°43'813.9
2017-Oct-07 19:56N 37°16' W 009°45'713.9
2017-Oct-07 19:26N 37°22' W 009°47'613.7
2017-Oct-07 19:00N 37°28' W 009°48'713.7
2017-Oct-07 18:30N 37°35' W 009°50'713.7
2017-Oct-07 18:01N 37°42' W 009°51'714.1
2017-Oct-07 17:30N 37°49' W 009°53'714.5
2017-Oct-07 17:01N 37°56' W 009°55'714.4
2017-Oct-07 16:30N 38°03' W 009°56'714.2
2017-Oct-07 16:01N 38°10' W 009°57'713.6
2017-Oct-07 15:30N 38°17' W 009°58'713.6
2017-Oct-07 15:00N 38°23' W 009°59'713.5
2017-Oct-07 14:30N 38°30' W 010°00'713.8
2017-Oct-07 14:00N 38°36' W 010°03'714.7
2017-Oct-07 13:30N 38°44' W 010°05'714.1
2017-Oct-07 13:00N 38°51' W 010°05'714.0
2017-Oct-07 12:30N 38°58' W 010°04'713.5
2017-Oct-07 12:00N 39°04' W 010°03'714.2
2017-Oct-07 11:31N 39°11' W 010°03'714.3
2017-Oct-07 11:00N 39°19' W 010°04'714.4
2017-Oct-07 10:30N 39°26' W 010°04'714.3
2017-Oct-07 10:00N 39°33' W 010°04'713.9
2017-Oct-07 09:30N 39°40' W 010°04'714.2
2017-Oct-07 09:00N 39°47' W 010°04'714.0
2017-Oct-07 08:30N 39°54' W 010°04'714.2
2017-Oct-07 08:01N 40°01' W 010°04'815.3
2017-Oct-07 07:30N 40°09' W 010°04'815.5
2017-Oct-07 07:00N 40°17' W 010°04'815.5
2017-Oct-07 06:30N 40°24' W 010°04'815.3
2017-Oct-07 06:00N 40°32' W 010°04'815.3
2017-Oct-07 05:31N 40°40' W 010°04'815.4
2017-Oct-07 05:00N 40°47' W 010°04'815.6
2017-Oct-07 04:31N 40°55' W 010°04'815.3
2017-Oct-07 04:00N 41°03' W 010°04'815.1
2017-Oct-07 03:31N 41°10' W 010°04'815.7
2017-Oct-07 03:00N 41°18' W 010°04'815.5
2017-Oct-07 02:31N 41°26' W 010°04'815.1
2017-Oct-07 02:01N 41°33' W 010°03'815.1
2017-Oct-07 01:30N 41°41' W 010°02'3614.1
2017-Oct-06 22:55N 42°17' W 010°04'614.2
2017-Oct-06 22:30N 42°23' W 010°05'913.4
2017-Oct-06 21:51N 42°32' W 010°06'1614.1
2017-Oct-06 20:42N 42°48' W 010°06'813.9
2017-Oct-06 20:06N 42°56' W 010°06'513.8
2017-Oct-06 19:45N 43°01' W 010°06'313.5
2017-Oct-06 19:30N 43°05' W 010°06'713.8
2017-Oct-06 19:01N 43°12' W 010°05'713.7
2017-Oct-06 18:31N 43°18' W 010°04'814.1
2017-Oct-06 17:57N 43°25' W 009°59'  

Dump ship's entire track history